createdAt,value
2017-12-16T00:01:46.505Z,96590.70
2017-12-16T00:04:14.025Z,96588.14
2017-12-16T00:06:41.577Z,96596.88
2017-12-16T00:09:09.108Z,96596.50
2017-12-16T00:11:36.630Z,96594.41
2017-12-16T00:14:04.147Z,96604.73
2017-12-16T00:16:31.683Z,96586.78
2017-12-16T00:18:59.199Z,96599.11
2017-12-16T00:21:26.755Z,96593.44
2017-12-16T00:23:54.269Z,96596.23
2017-12-16T00:26:21.782Z,96600.51
2017-12-16T00:28:49.309Z,96601.69
2017-12-16T00:31:16.829Z,96599.41
2017-12-16T00:33:44.373Z,96600.62
2017-12-16T00:36:11.909Z,96604.69
2017-12-16T00:38:39.441Z,96608.06
2017-12-16T00:41:06.978Z,96610.32
2017-12-16T00:43:49.593Z,96611.23
2017-12-16T00:46:19.944Z,96609.53
2017-12-16T00:48:51.083Z,96614.66
2017-12-16T00:51:22.382Z,96612.19
2017-12-16T00:53:55.890Z,96613.05
2017-12-16T00:56:29.228Z,96615.03
2017-12-16T00:59:01.222Z,96614.98
2017-12-16T01:01:32.960Z,96623.41
2017-12-16T01:04:03.436Z,96625.06
2017-12-16T01:06:34.475Z,96625.14
2017-12-16T01:09:08.387Z,96626.13
2017-12-16T01:11:40.942Z,96633.48
2017-12-16T01:14:36.441Z,96642.23
2017-12-16T01:17:31.140Z,96642.92
2017-12-16T01:20:33.211Z,96642.09
2017-12-16T01:23:35.946Z,96644.92
2017-12-16T01:26:35.781Z,96648.33
2017-12-16T01:29:33.968Z,96659.84
2017-12-16T01:32:41.600Z,96662.08
2017-12-16T01:39:07.368Z,96668.33
2017-12-16T01:41:54.286Z,96670.72
2017-12-16T01:44:49.620Z,96673.05
2017-12-16T01:47:39.666Z,96673.71
2017-12-16T01:50:35.097Z,96680.11
2017-12-16T01:53:25.094Z,96681.95
2017-12-16T01:56:23.872Z,96685.86
2017-12-16T01:59:19.672Z,96693.73
2017-12-16T02:02:08.209Z,96696.00
2017-12-16T02:04:44.359Z,96687.67
2017-12-16T02:07:45.822Z,96702.50
2017-12-16T02:10:39.100Z,96696.88
2017-12-16T02:13:30.492Z,96701.59
2017-12-16T02:16:15.195Z,96696.62
2017-12-16T02:18:44.770Z,96695.96
2017-12-16T02:21:16.930Z,96697.31
2017-12-16T02:23:47.251Z,96698.63
2017-12-16T02:26:19.737Z,96713.00
2017-12-16T02:28:51.849Z,96703.55
2017-12-16T02:31:24.451Z,96710.38
2017-12-16T02:33:56.925Z,96716.91
2017-12-16T02:36:28.374Z,96717.23
2017-12-16T02:38:58.522Z,96713.25
2017-12-16T02:41:30.010Z,96719.91
2017-12-16T02:44:02.085Z,96716.43
2017-12-16T02:46:33.606Z,96719.92
2017-12-16T02:49:04.707Z,96730.58
2017-12-16T02:51:36.397Z,96728.44
2017-12-16T02:54:07.212Z,96733.27
2017-12-16T02:56:39.796Z,96733.48
2017-12-16T02:59:09.791Z,96738.48
2017-12-16T03:01:41.904Z,96747.92
2017-12-16T03:04:13.760Z,96748.86
2017-12-16T03:06:44.277Z,96749.13
2017-12-16T03:09:15.613Z,96751.80
2017-12-16T03:11:48.974Z,96749.80
2017-12-16T03:14:31.217Z,96759.33
2017-12-16T03:17:28.892Z,96764.73
2017-12-16T03:20:17.186Z,96763.26
2017-12-16T03:22:47.122Z,96764.27
2017-12-16T03:25:19.308Z,96776.36
2017-12-16T03:28:00.482Z,96774.73
2017-12-16T03:31:01.394Z,96782.37
2017-12-16T03:34:04.576Z,96779.69
2017-12-16T03:37:20.057Z,96789.14
2017-12-16T03:40:08.337Z,96789.02
2017-12-16T03:43:05.279Z,96788.08
2017-12-16T03:45:58.732Z,96792.98
2017-12-16T03:48:47.940Z,96785.30
2017-12-16T03:51:43.986Z,96789.41
2017-12-16T03:54:35.471Z,96800.03
2017-12-16T03:57:30.295Z,96809.61
2017-12-16T04:00:33.863Z,96802.01
2017-12-16T04:03:36.489Z,96812.15
2017-12-16T04:06:05.203Z,96813.09
2017-12-16T04:08:35.836Z,96813.59
2017-12-16T04:11:07.363Z,96820.10
2017-12-16T04:13:38.588Z,96822.36
2017-12-16T04:16:07.556Z,96817.20
2017-12-16T04:18:41.151Z,96827.56
2017-12-16T04:21:13.116Z,96822.50
2017-12-16T04:23:46.417Z,96826.09
2017-12-16T04:26:21.186Z,96833.55
2017-12-16T04:28:56.061Z,96834.42
2017-12-16T04:31:28.370Z,96828.00
2017-12-16T04:34:00.353Z,96835.33
2017-12-16T04:36:32.108Z,96836.64
2017-12-16T04:39:05.441Z,96837.33
2017-12-16T04:41:38.379Z,96840.84
2017-12-16T04:44:11.157Z,96846.86
2017-12-16T04:46:42.497Z,96843.03
2017-12-16T04:49:12.241Z,96842.82
2017-12-16T04:51:42.701Z,96850.81
2017-12-16T04:54:14.802Z,96844.58
2017-12-16T04:56:46.728Z,96856.16
2017-12-16T04:59:17.271Z,96868.38
2017-12-16T05:01:49.320Z,96868.19
2017-12-16T05:04:21.337Z,96866.34
2017-12-16T05:06:53.213Z,96876.20
2017-12-16T05:09:24.046Z,96875.02
2017-12-16T05:11:55.767Z,96881.80
2017-12-16T05:14:27.160Z,96887.66
2017-12-16T05:16:58.836Z,96888.54
2017-12-16T05:19:30.802Z,96884.09
2017-12-16T05:22:02.010Z,96890.45
2017-12-16T05:24:33.719Z,96895.95
2017-12-16T05:27:05.745Z,96891.67
2017-12-16T05:29:37.406Z,96897.38
2017-12-16T05:32:09.947Z,96899.39
2017-12-16T05:34:39.032Z,96908.38
2017-12-16T05:37:11.271Z,96903.94
2017-12-16T05:39:42.737Z,96910.45
2017-12-16T05:42:13.917Z,96915.82
2017-12-16T05:44:45.547Z,96915.36
2017-12-16T05:47:17.941Z,96917.61
2017-12-16T05:49:49.369Z,96922.64
2017-12-16T05:52:21.268Z,96924.41
2017-12-16T05:54:52.552Z,96930.52
2017-12-16T05:57:24.612Z,96931.59
2017-12-16T05:59:55.893Z,96937.86
2017-12-16T06:02:23.763Z,96940.78
2017-12-16T06:04:51.645Z,96947.55
2017-12-16T06:07:19.394Z,96957.42
2017-12-16T06:09:47.174Z,96952.50
2017-12-16T06:12:15.387Z,96960.75
2017-12-16T06:14:43.198Z,96966.34
2017-12-16T06:17:11.288Z,96969.63
2017-12-16T06:19:39.012Z,96976.36
2017-12-16T06:22:07.210Z,96980.34
2017-12-16T06:24:36.170Z,96986.77
2017-12-16T06:27:04.177Z,96982.84
2017-12-16T06:29:31.991Z,96986.98
2017-12-16T06:32:00.616Z,96992.84
2017-12-16T06:34:28.364Z,96994.14
2017-12-16T06:36:56.333Z,96997.66
2017-12-16T06:39:24.217Z,96999.50
2017-12-16T06:41:52.317Z,97003.42
2017-12-16T06:44:20.170Z,97005.55
2017-12-16T06:46:48.819Z,96995.36
2017-12-16T06:49:16.776Z,97009.46
2017-12-16T06:51:44.582Z,97004.68
2017-12-16T06:54:12.556Z,97020.00
2017-12-16T06:56:40.561Z,97021.16
2017-12-16T06:59:08.387Z,97020.98
2017-12-16T07:01:36.413Z,97023.17
2017-12-16T07:04:04.223Z,97032.93
2017-12-16T07:06:32.262Z,97031.72
2017-12-16T07:09:00.151Z,97041.08
2017-12-16T07:11:28.035Z,97050.86
2017-12-16T07:13:55.869Z,97053.98
2017-12-16T07:16:23.708Z,97057.97
2017-12-16T07:18:51.537Z,97067.84
2017-12-16T07:21:19.465Z,97064.02
2017-12-16T07:23:47.462Z,97071.01
2017-12-16T07:26:15.097Z,97076.86
2017-12-16T07:28:43.342Z,97077.41
2017-12-16T07:31:12.502Z,97080.58
2017-12-16T07:33:40.443Z,97090.70
2017-12-16T07:36:08.728Z,97098.86
2017-12-16T07:38:37.454Z,97103.31
2017-12-16T07:41:05.497Z,97103.63
2017-12-16T07:43:34.692Z,97101.78
2017-12-16T07:46:03.786Z,97107.37
2017-12-16T07:48:31.619Z,97116.15
2017-12-16T07:50:59.182Z,97115.62
2017-12-16T07:53:27.095Z,97117.09
2017-12-16T07:55:55.447Z,97125.51
2017-12-16T07:58:23.827Z,97134.00
2017-12-16T08:00:53.285Z,97137.06
2017-12-16T08:03:22.888Z,97140.78
2017-12-16T08:05:52.712Z,97144.55
2017-12-16T08:08:22.494Z,97147.34
2017-12-16T08:10:52.562Z,97150.39
2017-12-16T08:13:22.190Z,97155.97
2017-12-16T08:15:52.623Z,97163.73
2017-12-16T08:18:22.257Z,97166.73
2017-12-16T08:20:51.362Z,97173.16
2017-12-16T08:23:21.608Z,97174.03
2017-12-16T08:25:49.125Z,97188.77
2017-12-16T08:28:16.647Z,97190.63
2017-12-16T08:30:44.402Z,97190.15
2017-12-16T08:33:13.025Z,97200.88
2017-12-16T08:35:40.538Z,97202.45
2017-12-16T08:38:08.262Z,97208.80
2017-12-16T08:40:35.777Z,97217.77
2017-12-16T08:43:03.314Z,97217.00
2017-12-16T08:45:30.846Z,97222.88
2017-12-16T08:47:58.446Z,97231.53
2017-12-16T08:50:25.954Z,97239.16
2017-12-16T08:52:53.569Z,97242.38
2017-12-16T08:55:21.103Z,97250.48
2017-12-16T08:57:48.621Z,97256.45
2017-12-16T09:00:16.186Z,97270.19
2017-12-16T09:02:43.712Z,97274.42
2017-12-16T09:05:11.368Z,97278.98
2017-12-16T09:07:38.978Z,97286.83
2017-12-16T09:10:06.499Z,97293.34
2017-12-16T09:12:34.027Z,97294.45
2017-12-16T09:15:01.536Z,97302.32
2017-12-16T09:17:29.032Z,97307.45
2017-12-16T09:19:56.553Z,97310.41
2017-12-16T09:22:24.084Z,97320.81
2017-12-16T09:24:51.617Z,97328.95
2017-12-16T09:27:19.255Z,97339.00
2017-12-16T09:29:46.780Z,97341.88
2017-12-16T09:32:14.313Z,97349.54
2017-12-16T09:34:41.849Z,97355.00
2017-12-16T09:37:09.373Z,97369.67
2017-12-16T09:39:36.899Z,97373.53
2017-12-16T09:42:04.452Z,97381.78
2017-12-16T09:44:32.012Z,97378.97
2017-12-16T09:46:59.578Z,97386.42
2017-12-16T09:49:27.097Z,97386.41
2017-12-16T09:51:54.623Z,97389.48
2017-12-16T09:54:22.152Z,97392.27
2017-12-16T09:56:49.671Z,97392.68
2017-12-16T09:59:17.217Z,97396.70
2017-12-16T10:01:44.731Z,97400.04
2017-12-16T10:04:12.268Z,97399.23
2017-12-16T10:06:39.816Z,97407.35
2017-12-16T10:09:07.348Z,97406.03
2017-12-16T10:11:34.874Z,97410.84
2017-12-16T10:14:02.516Z,97412.06
2017-12-16T10:16:30.027Z,97413.64
2017-12-16T10:18:57.584Z,97417.66
2017-12-16T10:21:25.198Z,97416.43
2017-12-16T10:23:52.727Z,97418.06
2017-12-16T10:26:20.274Z,97430.10
2017-12-16T10:28:47.787Z,97428.81
2017-12-16T10:31:15.338Z,97441.42
2017-12-16T10:33:42.863Z,97444.27
2017-12-16T10:36:10.392Z,97444.48
2017-12-16T10:38:37.918Z,97448.51
2017-12-16T10:41:05.524Z,97453.83
2017-12-16T10:43:33.068Z,97455.45
2017-12-16T10:46:00.690Z,97463.87
2017-12-16T10:48:28.241Z,97470.28
2017-12-16T10:50:55.774Z,97468.95
2017-12-16T10:53:23.405Z,97475.52
2017-12-16T10:55:50.948Z,97473.64
2017-12-16T10:58:18.617Z,97471.48
2017-12-16T11:01:01.892Z,97479.59
2017-12-16T11:03:29.426Z,97474.59
2017-12-16T11:05:56.967Z,97479.39
2017-12-16T11:08:24.512Z,97480.49
2017-12-16T11:10:52.004Z,97480.79
2017-12-16T11:13:19.548Z,97485.81
2017-12-16T11:15:47.078Z,97488.09
2017-12-16T11:18:14.608Z,97484.89
2017-12-16T11:20:42.154Z,97479.02
2017-12-16T11:23:09.679Z,97482.56
2017-12-16T11:25:37.199Z,97490.20
2017-12-16T11:28:04.736Z,97490.32
2017-12-16T11:30:32.266Z,97496.05
2017-12-16T11:32:59.792Z,97497.66
2017-12-16T11:35:27.324Z,97501.36
2017-12-16T11:37:56.034Z,97505.23
2017-12-16T11:40:23.628Z,97510.41
2017-12-16T11:42:51.182Z,97514.95
2017-12-16T11:45:18.722Z,97517.28
2017-12-16T11:47:46.254Z,97517.13
2017-12-16T11:50:13.796Z,97520.25
2017-12-16T11:52:41.322Z,97523.07
2017-12-16T11:55:08.847Z,97520.69
2017-12-16T11:57:36.384Z,97523.49
2017-12-16T12:00:04.002Z,97523.46
2017-12-16T12:02:31.535Z,97523.84
2017-12-16T12:04:59.063Z,97534.73
2017-12-16T12:07:26.607Z,97529.66
2017-12-16T12:09:54.164Z,97534.31
2017-12-16T12:12:21.950Z,97535.84
2017-12-16T12:14:49.467Z,97534.82
2017-12-16T12:17:17.008Z,97542.97
2017-12-16T12:19:44.537Z,97535.16
2017-12-16T12:22:12.099Z,97542.44
2017-12-16T12:24:39.634Z,97549.27
2017-12-16T12:27:07.188Z,97549.40
2017-12-16T12:29:34.733Z,97547.88
2017-12-16T12:32:02.240Z,97550.74
2017-12-16T12:34:29.787Z,97550.98
2017-12-16T12:36:57.352Z,97547.78
2017-12-16T12:39:24.886Z,97549.64
2017-12-16T12:41:52.407Z,97542.83
2017-12-16T12:44:19.947Z,97550.84
2017-12-16T12:46:47.459Z,97554.33
2017-12-16T12:49:14.986Z,97559.45
2017-12-16T12:51:42.544Z,97558.93
2017-12-16T12:54:10.063Z,97559.07
2017-12-16T12:56:37.578Z,97567.62
2017-12-16T12:59:05.097Z,97561.48
2017-12-16T13:01:32.636Z,97568.56
2017-12-16T13:04:00.168Z,97569.65
2017-12-16T13:06:27.905Z,97568.02
2017-12-16T13:08:55.516Z,97572.63
2017-12-16T13:11:23.059Z,97578.67
2017-12-16T13:13:50.685Z,97575.52
2017-12-16T13:16:18.235Z,97577.78
2017-12-16T13:18:45.764Z,97576.09
2017-12-16T13:21:13.273Z,97575.59
2017-12-16T13:23:40.832Z,97592.08
2017-12-16T13:26:08.402Z,97590.97
2017-12-16T13:28:35.944Z,97592.83
2017-12-16T13:31:03.648Z,97600.20
2017-12-16T13:33:31.188Z,97603.55
2017-12-16T13:35:58.740Z,97604.84
2017-12-16T13:38:26.328Z,97602.45
2017-12-16T13:40:53.869Z,97591.92
2017-12-16T13:43:21.413Z,97600.17
2017-12-16T13:45:48.945Z,97609.63
2017-12-16T13:48:16.494Z,97614.02
2017-12-16T13:50:44.030Z,97626.19
2017-12-16T13:53:11.588Z,97614.58
2017-12-16T13:55:39.129Z,97624.40
2017-12-16T13:58:06.662Z,97629.75
2017-12-16T14:00:34.225Z,97647.22
2017-12-16T14:03:01.801Z,97643.69
2017-12-16T14:05:29.349Z,97650.66
2017-12-16T14:07:56.924Z,97655.95
2017-12-16T14:10:24.494Z,97656.41
2017-12-16T14:12:52.039Z,97657.36
2017-12-16T14:15:19.584Z,97659.91
2017-12-16T14:17:47.121Z,97669.95
2017-12-16T14:20:14.675Z,97674.19
2017-12-16T14:22:42.218Z,97671.98
2017-12-16T14:25:09.723Z,97680.77
2017-12-16T14:27:37.267Z,97684.39
2017-12-16T14:30:04.799Z,97685.83
2017-12-16T14:32:32.310Z,97698.86
2017-12-16T14:34:59.835Z,97695.05
2017-12-16T14:37:27.392Z,97704.58
2017-12-16T14:39:55.042Z,97704.67
2017-12-16T14:42:22.557Z,97710.06
2017-12-16T14:44:50.099Z,97714.69
2017-12-16T14:47:17.624Z,97708.46
2017-12-16T14:49:45.147Z,97718.30
2017-12-16T14:52:13.205Z,97720.77
2017-12-16T14:54:40.745Z,97723.67
2017-12-16T14:57:08.274Z,97733.30
2017-12-16T14:59:35.799Z,97732.59
2017-12-16T15:02:03.388Z,97739.76
2017-12-16T15:04:30.920Z,97742.45
2017-12-16T15:06:58.488Z,97750.33
2017-12-16T15:09:26.028Z,97751.53
2017-12-16T15:11:53.605Z,97753.52
2017-12-16T15:14:21.174Z,97755.30
2017-12-16T15:16:50.459Z,97754.66
2017-12-16T15:19:17.984Z,97774.76
2017-12-16T15:21:45.524Z,97765.09
2017-12-16T15:24:13.060Z,97772.62
2017-12-16T15:26:40.633Z,97771.66
2017-12-16T15:29:08.177Z,97772.52
2017-12-16T15:31:35.732Z,97778.12
2017-12-16T15:34:03.274Z,97773.40
2017-12-16T15:36:30.828Z,97779.88
2017-12-16T15:38:58.370Z,97771.61
2017-12-16T15:41:25.936Z,97783.97
2017-12-16T15:43:53.475Z,97782.95
2017-12-16T15:46:21.023Z,97788.98
2017-12-16T15:48:48.569Z,97785.77
2017-12-16T15:51:16.134Z,97793.23
2017-12-16T15:53:43.670Z,97798.44
2017-12-16T15:56:11.219Z,97795.47
2017-12-16T15:58:38.903Z,97796.66
2017-12-16T16:01:06.473Z,97806.02
2017-12-16T16:03:34.054Z,97809.58
2017-12-16T16:06:01.773Z,97811.34
2017-12-16T16:08:29.309Z,97819.55
2017-12-16T16:10:56.865Z,97820.59
2017-12-16T16:13:24.404Z,97823.78
2017-12-16T16:15:51.965Z,97826.98
2017-12-16T16:18:19.552Z,97838.81
2017-12-16T16:20:47.112Z,97845.82
2017-12-16T16:23:14.674Z,97847.92
2017-12-16T16:25:42.211Z,97852.20
2017-12-16T16:28:09.812Z,97853.34
2017-12-16T16:30:37.391Z,97853.48
2017-12-16T16:33:04.945Z,97864.33
2017-12-16T16:35:32.490Z,97865.96
2017-12-16T16:38:00.028Z,97864.20
2017-12-16T16:40:27.568Z,97866.27
2017-12-16T16:42:55.109Z,97870.14
2017-12-16T16:45:22.644Z,97872.31
2017-12-16T16:47:50.174Z,97874.27
2017-12-16T16:50:17.724Z,97877.74
2017-12-16T16:52:45.265Z,97878.83
2017-12-16T16:55:12.813Z,97882.01
2017-12-16T16:57:40.379Z,97878.73
2017-12-16T17:00:08.071Z,97888.58
2017-12-16T17:02:35.626Z,97886.69
2017-12-16T17:05:03.168Z,97898.05
2017-12-16T17:07:30.723Z,97901.77
2017-12-16T17:09:58.275Z,97903.96
2017-12-16T17:12:25.819Z,97906.86
2017-12-16T17:14:53.349Z,97911.57
2017-12-16T17:17:20.915Z,97922.34
2017-12-16T17:19:48.446Z,97920.56
2017-12-16T17:22:16.121Z,97923.53
2017-12-16T17:24:43.643Z,97927.92
2017-12-16T17:27:11.179Z,97923.47
2017-12-16T17:29:38.713Z,97932.96
2017-12-16T17:32:06.304Z,97936.84
2017-12-16T17:34:33.916Z,97938.62
2017-12-16T17:37:01.450Z,97948.04
2017-12-16T17:39:29.026Z,97950.14
2017-12-16T17:41:56.559Z,97947.62
2017-12-16T17:44:24.105Z,97954.03
2017-12-16T17:46:51.648Z,97953.00
2017-12-16T17:49:19.185Z,97954.39
2017-12-16T17:51:46.725Z,97959.31
2017-12-16T17:54:14.393Z,97954.38
2017-12-16T17:56:41.933Z,97963.53
2017-12-16T17:59:09.473Z,97962.72
2017-12-16T18:01:37.008Z,97962.96
2017-12-16T18:04:04.545Z,97972.72
2017-12-16T18:06:32.120Z,97968.16
2017-12-16T18:08:59.650Z,97975.18
2017-12-16T18:11:27.198Z,97978.23
2017-12-16T18:13:54.746Z,97979.88
2017-12-16T18:16:22.306Z,97985.34
2017-12-16T18:18:49.839Z,97990.24
2017-12-16T18:21:17.393Z,97998.28
2017-12-16T18:23:44.928Z,98001.50
2017-12-16T18:26:12.465Z,97994.79
2017-12-16T18:28:40.004Z,97998.84
2017-12-16T18:31:07.556Z,97998.30
2017-12-16T18:33:35.110Z,98008.36
2017-12-16T18:36:02.660Z,98003.96
2017-12-16T18:38:30.252Z,98003.33
2017-12-16T18:40:57.835Z,98008.33
2017-12-16T18:43:25.424Z,98011.66
2017-12-16T18:45:52.985Z,98015.77
2017-12-16T18:48:20.595Z,98019.02
2017-12-16T18:50:48.125Z,98029.44
2017-12-16T18:53:15.665Z,98031.70
2017-12-16T18:55:43.416Z,98025.17
2017-12-16T18:58:10.954Z,98026.66
2017-12-16T19:00:38.554Z,98030.11
2017-12-16T19:03:06.140Z,98035.60
2017-12-16T19:05:33.680Z,98050.69
2017-12-16T19:08:01.240Z,98049.25
2017-12-16T19:10:28.784Z,98047.06
2017-12-16T19:12:56.330Z,98051.30
2017-12-16T19:15:23.909Z,98062.38
2017-12-16T19:17:51.612Z,98071.52
2017-12-16T19:20:19.146Z,98065.82
2017-12-16T19:22:46.716Z,98069.00
2017-12-16T19:25:14.336Z,98071.57
2017-12-16T19:27:41.883Z,98079.19
2017-12-16T19:30:09.414Z,98077.18
2017-12-16T19:32:37.069Z,98088.36
2017-12-16T19:35:04.645Z,98087.95
2017-12-16T19:37:32.196Z,98094.77
2017-12-16T19:39:59.750Z,98100.53
2017-12-16T19:42:27.344Z,98100.30
2017-12-16T19:44:54.899Z,98107.62
2017-12-16T19:47:22.435Z,98106.75
2017-12-16T19:49:49.980Z,98107.23
2017-12-16T19:52:17.541Z,98108.31
2017-12-16T19:54:45.100Z,98111.28
2017-12-16T19:57:12.674Z,98116.85
2017-12-16T19:59:40.250Z,98114.55
2017-12-16T20:02:07.796Z,98115.55
2017-12-16T20:04:35.386Z,98121.17
2017-12-16T20:07:02.964Z,98112.95
2017-12-16T20:09:30.495Z,98122.50
2017-12-16T20:11:58.125Z,98120.61
2017-12-16T20:14:25.758Z,98124.38
2017-12-16T20:16:53.280Z,98123.28
2017-12-16T20:19:20.826Z,98126.64
2017-12-16T20:21:48.374Z,98126.17
2017-12-16T20:24:16.091Z,98126.59
2017-12-16T20:26:43.750Z,98129.39
2017-12-16T20:29:11.281Z,98129.70
2017-12-16T20:31:38.905Z,98125.34
2017-12-16T20:34:06.472Z,98134.03
2017-12-16T20:36:34.017Z,98129.30
2017-12-16T20:39:01.574Z,98132.41
2017-12-16T20:41:29.141Z,98137.39
2017-12-16T20:43:56.812Z,98129.05
2017-12-16T20:46:24.370Z,98129.14
2017-12-16T20:48:51.952Z,98130.83
2017-12-16T20:51:19.486Z,98129.02
2017-12-16T20:53:47.082Z,98131.16
2017-12-16T20:56:14.700Z,98132.73
2017-12-16T20:58:42.260Z,98142.63
2017-12-16T21:01:09.810Z,98140.21
2017-12-16T21:03:37.332Z,98144.58
2017-12-16T21:06:04.913Z,98140.86
2017-12-16T21:08:32.475Z,98140.92
2017-12-16T21:11:00.024Z,98148.01
2017-12-16T21:13:27.596Z,98150.30
2017-12-16T21:15:55.143Z,98151.45
2017-12-16T21:18:22.685Z,98144.75
2017-12-16T21:20:50.294Z,98146.03
2017-12-16T21:23:17.856Z,98144.50
2017-12-16T21:25:45.414Z,98154.45
2017-12-16T21:28:12.968Z,98156.39
2017-12-16T21:30:40.511Z,98155.77
2017-12-16T21:33:08.055Z,98156.42
2017-12-16T21:35:35.629Z,98157.70
2017-12-16T21:38:03.192Z,98164.37
2017-12-16T21:40:30.797Z,98170.40
2017-12-16T21:42:58.380Z,98170.10
2017-12-16T21:45:25.914Z,98173.48
2017-12-16T21:47:53.502Z,98174.83
2017-12-16T21:50:21.054Z,98181.18
2017-12-16T21:52:48.599Z,98179.05
2017-12-16T21:55:16.188Z,98183.53
2017-12-16T21:57:43.719Z,98189.60
2017-12-16T22:00:11.250Z,98193.03
2017-12-16T22:02:38.787Z,98188.31
2017-12-16T22:05:06.338Z,98193.61
2017-12-16T22:07:33.888Z,98200.88
2017-12-16T22:10:01.445Z,98197.83
2017-12-16T22:12:28.976Z,98197.70
2017-12-16T22:14:56.520Z,98198.00
2017-12-16T22:17:24.044Z,98204.97
2017-12-16T22:19:51.617Z,98208.66
2017-12-16T22:22:19.165Z,98207.66
2017-12-16T22:24:46.726Z,98217.09
2017-12-16T22:27:14.270Z,98213.06
2017-12-16T22:29:41.852Z,98212.95
2017-12-16T22:32:09.406Z,98206.85
2017-12-16T22:34:36.971Z,98212.38
2017-12-16T22:37:04.512Z,98210.43
2017-12-16T22:39:32.177Z,98207.06
2017-12-16T22:41:59.735Z,98215.64
2017-12-16T22:44:27.276Z,98214.22
2017-12-16T22:46:54.872Z,98208.88
2017-12-16T22:49:22.400Z,98208.01
2017-12-16T22:51:49.950Z,98213.08
2017-12-16T22:54:17.495Z,98209.30
2017-12-16T22:56:45.037Z,98217.17
2017-12-16T22:59:12.676Z,98218.45
2017-12-16T23:01:40.221Z,98213.44
2017-12-16T23:04:07.755Z,98220.10
2017-12-16T23:06:35.294Z,98221.26
2017-12-16T23:09:02.870Z,98218.13
2017-12-16T23:11:30.429Z,98214.92
2017-12-16T23:16:38.677Z,98216.06
2017-12-16T23:19:06.225Z,98219.23
2017-12-16T23:21:33.752Z,98220.86
2017-12-16T23:24:01.298Z,98222.48
2017-12-16T23:26:28.831Z,98226.67
2017-12-16T23:28:56.369Z,98227.38
2017-12-16T23:31:23.913Z,98227.81
2017-12-16T23:33:51.431Z,98229.78
2017-12-16T23:36:18.971Z,98228.88
2017-12-16T23:38:46.517Z,98229.45
2017-12-16T23:41:14.060Z,98227.75
2017-12-16T23:43:41.596Z,98224.72
2017-12-16T23:46:09.132Z,98225.45
2017-12-16T23:48:36.687Z,98231.49
2017-12-16T23:51:04.219Z,98226.63
2017-12-16T23:53:31.873Z,98230.27
2017-12-16T23:55:59.405Z,98224.27
2017-12-16T23:58:26.973Z,98223.14
